Sac River (Missouri), Caplinger Mills (06919900)

StateMissouriLatestLow (458 cfs)
RiverSac RiverRatingObservedEstimated
Updated2020-07-13 16:45 (40 minutes ago)Flood - The river is flooding. Obstacles can be treacherous or deadly. The river should be avoided at this stage for casual trips and definitely for the inexperienced. Trips should be attempted only with protective gear and equipment.Flood(none)6710
Discharge458 cfs (median: 1270 cfs)High - The river is high and potentially dangerous, especially for the young and / or inexperienced. Normal stream obstacles are sometimes difficult to navigate. Extended distances can be attempted, but canoe travel may not be advisable.High(none)2110
Height6.62 feetGood - Conditions are ideal for a canoe or kayak. Boats typically will drag on fewer than one-quarter of riffles, if at all, and portages are unnecessary or rare. Normal float lengths can be attempted without a problem.Good(none)1503
TrendFalling (rising over 24 hours)Low - River is low but can still be floated. Some riffles are okay but most come with significant dragging and might need a portage. Float lengths should be reduced to accommodate low flow, dragging, and portages.Low601124
USGSExternal icon USGS Site (External icon Google Maps)Poor - River is too low to float comfortably. Most or all riffles will drag or must be portaged and some obstacles (such as slick shelf rock) cause undue problems. Avoid the river at this stage for casual paddling trips.Poor(none)72

Trending Data

Plot Image

Trips for Sac River (Missouri), Caplinger Mills (06919900)

DateStartEndDistanceConditionDischargeHeightFishingDetails
Click for details2014-08-17 Caplinger Mills Rt N Total trip distance: 0.7 miles0.7 Low 45 4.76 Poor NoneNone Bowe, Michelle
Edmond, Brian
Edmond, Julian
Bowe, Michelle; Edmond, Brian; Edmond, Julian
Water level and flow was very low. However, much of the distance was a pool or had sufficient flow to carry the canoe. The boat ramp at Caplinger Mills was primitive and difficult to use with just a 2WD van.Water level and flow was very low. However, much of the distance was a pool or had sufficient flow to carry the canoe. The boat ramp at Caplinger Mills was primitive and difficult to use with just a 2WD van. USGS Gauge Data:
Caplinger Mills (06919900)
Discharge: 45
Height: 4.76
<b>USGS Gauge Data:</b></br />Caplinger Mills (06919900)<br />Discharge: 45<br />Height: 4.76
Source: EdmondSource: Edmond

A total of 1 rows are displayed.

Trip Summary for Sac River (Missouri), Caplinger Mills (06919900)

Miles0.7
Trips1
People3
Dates1
Years1
Months1
Rows1
Sources1

Condition Descriptions

Fishing Conditions

Fish Species

Notes

Classic Trip List

The classic River Trips application is still available for use. It is updated with the new system using a data retrofit. It is no longer maintained. The original River Trips application is no longer updated (as of 1 Dec 2016) but can be checked for errors or for the condition of the data before it was converted to the new system.

Gauge Data Table

ObservationHeightDischargeMaximum
Discharge
Minimum
Discharge
Mean
Discharge
P05P10P20P25P50
(Median)
P75P80P90P95
2020-07-13 16:45 6.62 458 6840 (2015) 61 (2006) 1870 62 127 202 332 1270 2370 3250 5590 6730
2020-07-13 15:45 6.71 493 6840 (2015) 61 (2006) 1870 62 127 202 332 1270 2370 3250 5590 6730
2020-07-13 14:45 6.82 538 6840 (2015) 61 (2006) 1870 62 127 202 332 1270 2370 3250 5590 6730
2020-07-13 13:45 6.95 593 6840 (2015) 61 (2006) 1870 62 127 202 332 1270 2370 3250 5590 6730
2020-07-13 12:45 7.10 659 6840 (2015) 61 (2006) 1870 62 127 202 332 1270 2370 3250 5590 6730
2020-07-13 11:45 7.28 742 6840 (2015) 61 (2006) 1870 62 127 202 332 1270 2370 3250 5590 6730
2020-07-13 10:45 7.50 850 6840 (2015) 61 (2006) 1870 62 127 202 332 1270 2370 3250 5590 6730
2020-07-13 09:45 7.76 988 6840 (2015) 61 (2006) 1870 62 127 202 332 1270 2370 3250 5590 6730
2020-07-13 08:45 8.05 1160 6840 (2015) 61 (2006) 1870 62 127 202 332 1270 2370 3250 5590 6730
2020-07-13 07:45 8.36 1350 6840 (2015) 61 (2006) 1870 62 127 202 332 1270 2370 3250 5590 6730
2020-07-13 06:45 8.68 1540 6840 (2015) 61 (2006) 1870 62 127 202 332 1270 2370 3250 5590 6730
2020-07-13 05:45 9.02 1760 6840 (2015) 61 (2006) 1870 62 127 202 332 1270 2370 3250 5590 6730
2020-07-13 04:45 9.36 1990 6840 (2015) 61 (2006) 1870 62 127 202 332 1270 2370 3250 5590 6730
2020-07-13 03:45 9.65 2190 6840 (2015) 61 (2006) 1870 62 127 202 332 1270 2370 3250 5590 6730
2020-07-13 02:45 9.86 2340 6840 (2015) 61 (2006) 1870 62 127 202 332 1270 2370 3250 5590 6730
2020-07-13 01:45 9.91 2380 6840 (2015) 61 (2006) 1870 62 127 202 332 1270 2370 3250 5590 6730
2020-07-13 00:45 9.70 2230 6840 (2015) 61 (2006) 1870 62 127 202 332 1270 2370 3250 5590 6730
2020-07-12 23:45 9.12 1830 7380 (1992) 57 (1988) 1840 64 127 184 308 1250 2820 3080 5150 6900
2020-07-12 22:45 7.88 1060 7380 (1992) 57 (1988) 1840 64 127 184 308 1250 2820 3080 5150 6900
2020-07-12 21:45 6.32 348 7380 (1992) 57 (1988) 1840 64 127 184 308 1250 2820 3080 5150 6900
2020-07-12 20:45 6.21 312 7380 (1992) 57 (1988) 1840 64 127 184 308 1250 2820 3080 5150 6900
2020-07-12 19:45 6.19 305 7380 (1992) 57 (1988) 1840 64 127 184 308 1250 2820 3080 5150 6900
2020-07-12 18:45 6.18 302 7380 (1992) 57 (1988) 1840 64 127 184 308 1250 2820 3080 5150 6900
2020-07-12 17:45 6.17 299 7380 (1992) 57 (1988) 1840 64 127 184 308 1250 2820 3080 5150 6900
2020-07-12 16:45 6.18 302 7380 (1992) 57 (1988) 1840 64 127 184 308 1250 2820 3080 5150 6900
2020-07-12 15:45 6.19 305 7380 (1992) 57 (1988) 1840 64 127 184 308 1250 2820 3080 5150 6900
2020-07-12 14:45 6.20 308 7380 (1992) 57 (1988) 1840 64 127 184 308 1250 2820 3080 5150 6900
2020-07-12 13:45 6.21 312 7380 (1992) 57 (1988) 1840 64 127 184 308 1250 2820 3080 5150 6900
2020-07-12 12:45 6.24 322 7380 (1992) 57 (1988) 1840 64 127 184 308 1250 2820 3080 5150 6900
2020-07-12 11:45 6.26 328 7380 (1992) 57 (1988) 1840 64 127 184 308 1250 2820 3080 5150 6900
2020-07-12 10:45 6.29 338 7380 (1992) 57 (1988) 1840 64 127 184 308 1250 2820 3080 5150 6900
2020-07-12 09:45 6.34 355 7380 (1992) 57 (1988) 1840 64 127 184 308 1250 2820 3080 5150 6900
2020-07-12 08:45 6.37 366 7380 (1992) 57 (1988) 1840 64 127 184 308 1250 2820 3080 5150 6900
2020-07-12 07:45 6.40 376 7380 (1992) 57 (1988) 1840 64 127 184 308 1250 2820 3080 5150 6900
2020-07-12 06:45 6.41 380 7380 (1992) 57 (1988) 1840 64 127 184 308 1250 2820 3080 5150 6900
2020-07-12 05:45 6.41 380 7380 (1992) 57 (1988) 1840 64 127 184 308 1250 2820 3080 5150 6900
2020-07-12 04:45 6.41 380 7380 (1992) 57 (1988) 1840 64 127 184 308 1250 2820 3080 5150 6900
2020-07-12 03:45 6.42 384 7380 (1992) 57 (1988) 1840 64 127 184 308 1250 2820 3080 5150 6900
2020-07-12 02:45 6.44 391 7380 (1992) 57 (1988) 1840 64 127 184 308 1250 2820 3080 5150 6900
2020-07-12 01:45 6.45 394 7380 (1992) 57 (1988) 1840 64 127 184 308 1250 2820 3080 5150 6900
2020-07-12 00:45 6.47 402 7380 (1992) 57 (1988) 1840 64 127 184 308 1250 2820 3080 5150 6900
2020-07-11 23:45 6.49 409 7440 (2007) 58 (1988) 1770 64 143 206 260 1090 2010 2840 5300 6760
2020-07-11 22:45 6.51 416 7440 (2007) 58 (1988) 1770 64 143 206 260 1090 2010 2840 5300 6760
2020-07-11 21:45 6.54 427 7440 (2007) 58 (1988) 1770 64 143 206 260 1090 2010 2840 5300 6760
2020-07-11 20:45 6.58 443 7440 (2007) 58 (1988) 1770 64 143 206 260 1090 2010 2840 5300 6760
2020-07-11 19:45 6.64 466 7440 (2007) 58 (1988) 1770 64 143 206 260 1090 2010 2840 5300 6760
2020-07-11 18:45 6.71 493 7440 (2007) 58 (1988) 1770 64 143 206 260 1090 2010 2840 5300 6760
2020-07-11 17:45 6.78 521 7440 (2007) 58 (1988) 1770 64 143 206 260 1090 2010 2840 5300 6760
2020-07-11 16:45 6.86 554 7440 (2007) 58 (1988) 1770 64 143 206 260 1090 2010 2840 5300 6760
2020-07-11 15:45 6.98 606 7440 (2007) 58 (1988) 1770 64 143 206 260 1090 2010 2840 5300 6760
2020-07-11 14:45 7.13 673 7440 (2007) 58 (1988) 1770 64 143 206 260 1090 2010 2840 5300 6760
2020-07-11 13:45 7.31 757 7440 (2007) 58 (1988) 1770 64 143 206 260 1090 2010 2840 5300 6760
2020-07-11 12:45 7.52 860 7440 (2007) 58 (1988) 1770 64 143 206 260 1090 2010 2840 5300 6760
2020-07-11 11:45 7.80 1010 7440 (2007) 58 (1988) 1770 64 143 206 260 1090 2010 2840 5300 6760
2020-07-11 10:45 8.13 1210 7440 (2007) 58 (1988) 1770 64 143 206 260 1090 2010 2840 5300 6760
2020-07-11 09:45 8.52 1450 7440 (2007) 58 (1988) 1770 64 143 206 260 1090 2010 2840 5300 6760
2020-07-11 08:45 8.96 1720 7440 (2007) 58 (1988) 1770 64 143 206 260 1090 2010 2840 5300 6760
2020-07-11 07:45 9.45 2050 7440 (2007) 58 (1988) 1770 64 143 206 260 1090 2010 2840 5300 6760
2020-07-11 06:45 9.97 2430 7440 (2007) 58 (1988) 1770 64 143 206 260 1090 2010 2840 5300 6760
2020-07-11 05:45 10.52 2850 7440 (2007) 58 (1988) 1770 64 143 206 260 1090 2010 2840 5300 6760
2020-07-11 04:45 11.07 3290 7440 (2007) 58 (1988) 1770 64 143 206 260 1090 2010 2840 5300 6760
2020-07-11 03:45 11.58 3730 7440 (2007) 58 (1988) 1770 64 143 206 260 1090 2010 2840 5300 6760
2020-07-11 02:45 12.03 4130 7440 (2007) 58 (1988) 1770 64 143 206 260 1090 2010 2840 5300 6760
2020-07-11 01:45 12.31 4390 7440 (2007) 58 (1988) 1770 64 143 206 260 1090 2010 2840 5300 6760
2020-07-11 00:45 12.36 4430 7440 (2007) 58 (1988) 1770 64 143 206 260 1090 2010 2840 5300 6760
2020-07-10 23:45 12.10 4190 7510 (2007) 60 (1988) 1760 71 95 190 239 1240 2160 2530 5110 6790
2020-07-10 22:45 11.44 3610 7510 (2007) 60 (1988) 1760 71 95 190 239 1240 2160 2530 5110 6790
2020-07-10 21:45 10.36 2720 7510 (2007) 60 (1988) 1760 71 95 190 239 1240 2160 2530 5110 6790
2020-07-10 20:45 8.78 1610 7510 (2007) 60 (1988) 1760 71 95 190 239 1240 2160 2530 5110 6790
2020-07-10 19:45 7.00 614 7510 (2007) 60 (1988) 1760 71 95 190 239 1240 2160 2530 5110 6790
2020-07-10 18:45 6.70 489 7510 (2007) 60 (1988) 1760 71 95 190 239 1240 2160 2530 5110 6790
2020-07-10 17:45 6.78 521 7510 (2007) 60 (1988) 1760 71 95 190 239 1240 2160 2530 5110 6790
2020-07-10 16:45 6.88 563 7510 (2007) 60 (1988) 1760 71 95 190 239 1240 2160 2530 5110 6790
2020-07-10 15:45 7.00 614 7510 (2007) 60 (1988) 1760 71 95 190 239 1240 2160 2530 5110 6790
2020-07-10 14:45 7.15 682 7510 (2007) 60 (1988) 1760 71 95 190 239 1240 2160 2530 5110 6790
2020-07-10 13:45 7.32 762 7510 (2007) 60 (1988) 1760 71 95 190 239 1240 2160 2530 5110 6790
2020-07-10 12:45 7.53 865 7510 (2007) 60 (1988) 1760 71 95 190 239 1240 2160 2530 5110 6790
2020-07-10 11:45 7.79 1010 7510 (2007) 60 (1988) 1760 71 95 190 239 1240 2160 2530 5110 6790
2020-07-10 10:45 8.11 1190 7510 (2007) 60 (1988) 1760 71 95 190 239 1240 2160 2530 5110 6790
2020-07-10 09:45 8.48 1420 7510 (2007) 60 (1988) 1760 71 95 190 239 1240 2160 2530 5110 6790
2020-07-10 08:45 8.91 1690 7510 (2007) 60 (1988) 1760 71 95 190 239 1240 2160 2530 5110 6790
2020-07-10 07:45 9.38 2000 7510 (2007) 60 (1988) 1760 71 95 190 239 1240 2160 2530 5110 6790
2020-07-10 06:45 9.88 2360 7510 (2007) 60 (1988) 1760 71 95 190 239 1240 2160 2530 5110 6790
2020-07-10 05:45 10.39 2740 7510 (2007) 60 (1988) 1760 71 95 190 239 1240 2160 2530 5110 6790
2020-07-10 04:45 10.91 3160 7510 (2007) 60 (1988) 1760 71 95 190 239 1240 2160 2530 5110 6790
2020-07-10 03:45 11.40 3570 7510 (2007) 60 (1988) 1760 71 95 190 239 1240 2160 2530 5110 6790
2020-07-10 02:45 11.80 3920 7510 (2007) 60 (1988) 1760 71 95 190 239 1240 2160 2530 5110 6790
2020-07-10 01:45 12.06 4160 7510 (2007) 60 (1988) 1760 71 95 190 239 1240 2160 2530 5110 6790
2020-07-10 00:45 12.07 4170 7510 (2007) 60 (1988) 1760 71 95 190 239 1240 2160 2530 5110 6790
2020-07-09 23:45 11.74 3870 8040 (2015) 63 (1988) 1920 71 110 382 704 1330 2340 2880 5060 6910
2020-07-09 22:45 10.99 3230 8040 (2015) 63 (1988) 1920 71 110 382 704 1330 2340 2880 5060 6910
2020-07-09 21:45 9.79 2290 8040 (2015) 63 (1988) 1920 71 110 382 704 1330 2340 2880 5060 6910
2020-07-09 20:45 8.10 1190 8040 (2015) 63 (1988) 1920 71 110 382 704 1330 2340 2880 5060 6910
2020-07-09 19:45 6.79 525 8040 (2015) 63 (1988) 1920 71 110 382 704 1330 2340 2880 5060 6910
2020-07-09 18:45 6.75 509 8040 (2015) 63 (1988) 1920 71 110 382 704 1330 2340 2880 5060 6910
2020-07-09 17:45 6.84 546 8040 (2015) 63 (1988) 1920 71 110 382 704 1330 2340 2880 5060 6910
2020-07-09 16:45 6.95 593 8040 (2015) 63 (1988) 1920 71 110 382 704 1330 2340 2880 5060 6910
2020-07-09 15:45 7.06 641 8040 (2015) 63 (1988) 1920 71 110 382 704 1330 2340 2880 5060 6910
2020-07-09 14:45 7.21 709 8040 (2015) 63 (1988) 1920 71 110 382 704 1330 2340 2880 5060 6910
2020-07-09 13:45 7.39 796 8040 (2015) 63 (1988) 1920 71 110 382 704 1330 2340 2880 5060 6910
2020-07-09 12:45 7.61 906 8040 (2015) 63 (1988) 1920 71 110 382 704 1330 2340 2880 5060 6910
2020-07-09 11:45 7.85 1040 8040 (2015) 63 (1988) 1920 71 110 382 704 1330 2340 2880 5060 6910
2020-07-09 10:45 8.16 1220 8040 (2015) 63 (1988) 1920 71 110 382 704 1330 2340 2880 5060 6910
2020-07-09 09:45 8.51 1440 8040 (2015) 63 (1988) 1920 71 110 382 704 1330 2340 2880 5060 6910
2020-07-09 08:45 8.92 1700 8040 (2015) 63 (1988) 1920 71 110 382 704 1330 2340 2880 5060 6910
2020-07-09 07:45 9.38 2000 8040 (2015) 63 (1988) 1920 71 110 382 704 1330 2340 2880 5060 6910
2020-07-09 06:45 9.88 2360 8040 (2015) 63 (1988) 1920 71 110 382 704 1330 2340 2880 5060 6910
2020-07-09 05:45 10.40 2750 8040 (2015) 63 (1988) 1920 71 110 382 704 1330 2340 2880 5060 6910
2020-07-09 04:45 10.93 3180 8040 (2015) 63 (1988) 1920 71 110 382 704 1330 2340 2880 5060 6910
2020-07-09 03:45 11.43 3600 8040 (2015) 63 (1988) 1920 71 110 382 704 1330 2340 2880 5060 6910
2020-07-09 02:45 11.85 3970 8040 (2015) 63 (1988) 1920 71 110 382 704 1330 2340 2880 5060 6910
2020-07-09 01:45 12.12 4210 8040 (2015) 63 (1988) 1920 71 110 382 704 1330 2340 2880 5060 6910
2020-07-09 00:45 12.15 4240 8040 (2015) 63 (1988) 1920 71 110 382 704 1330 2340 2880 5060 6910
2020-07-08 23:45 11.86 3980 6850 (2008) 69 (1988) 1790 84 148 283 511 1260 2590 2820 4600 6330
2020-07-08 22:45 11.13 3340 6850 (2008) 69 (1988) 1790 84 148 283 511 1260 2590 2820 4600 6330
2020-07-08 21:45 9.97 2430 6850 (2008) 69 (1988) 1790 84 148 283 511 1260 2590 2820 4600 6330
2020-07-08 20:45 8.29 1310 6850 (2008) 69 (1988) 1790 84 148 283 511 1260 2590 2820 4600 6330
2020-07-08 19:45 6.82 538 6850 (2008) 69 (1988) 1790 84 148 283 511 1260 2590 2820 4600 6330
2020-07-08 18:45 6.74 505 6850 (2008) 69 (1988) 1790 84 148 283 511 1260 2590 2820 4600 6330
2020-07-08 17:45 6.83 542 6850 (2008) 69 (1988) 1790 84 148 283 511 1260 2590 2820 4600 6330
2020-07-08 16:45 6.93 584 6850 (2008) 69 (1988) 1790 84 148 283 511 1260 2590 2820 4600 6330
2020-07-08 15:45 7.06 641 6850 (2008) 69 (1988) 1790 84 148 283 511 1260 2590 2820 4600 6330
2020-07-08 14:45 7.20 705 6850 (2008) 69 (1988) 1790 84 148 283 511 1260 2590 2820 4600 6330
2020-07-08 13:45 7.38 791 6850 (2008) 69 (1988) 1790 84 148 283 511 1260 2590 2820 4600 6330
2020-07-08 12:45 7.60 901 6850 (2008) 69 (1988) 1790 84 148 283 511 1260 2590 2820 4600 6330
2020-07-08 11:45 7.86 1050 6850 (2008) 69 (1988) 1790 84 148 283 511 1260 2590 2820 4600 6330
2020-07-08 10:45 8.19 1240 6850 (2008) 69 (1988) 1790 84 148 283 511 1260 2590 2820 4600 6330
2020-07-08 09:45 8.57 1480 6850 (2008) 69 (1988) 1790 84 148 283 511 1260 2590 2820 4600 6330
2020-07-08 08:45 9.02 1760 6850 (2008) 69 (1988) 1790 84 148 283 511 1260 2590 2820 4600 6330
2020-07-08 07:45 9.53 2110 6850 (2008) 69 (1988) 1790 84 148 283 511 1260 2590 2820 4600 6330
2020-07-08 06:45 10.06 2490 6850 (2008) 69 (1988) 1790 84 148 283 511 1260 2590 2820 4600 6330
2020-07-08 05:45 10.61 2920 6850 (2008) 69 (1988) 1790 84 148 283 511 1260 2590 2820 4600 6330
2020-07-08 04:45 11.19 3390 6850 (2008) 69 (1988) 1790 84 148 283 511 1260 2590 2820 4600 6330
2020-07-08 03:45 11.73 3860 6850 (2008) 69 (1988) 1790 84 148 283 511 1260 2590 2820 4600 6330
2020-07-08 02:45 12.21 4290 6850 (2008) 69 (1988) 1790 84 148 283 511 1260 2590 2820 4600 6330
2020-07-08 01:45 12.58 4640 6850 (2008) 69 (1988) 1790 84 148 283 511 1260 2590 2820 4600 6330
2020-07-08 00:45 12.73 4790 6850 (2008) 69 (1988) 1790 84 148 283 511 1260 2590 2820 4600 6330
2020-07-07 23:45 12.55 4610 6810 (2007) 77 (1988) 1630 103 148 377 652 954 1940 2430 5100 5940
2020-07-07 22:45 12.07 4170 6810 (2007) 77 (1988) 1630 103 148 377 652 954 1940 2430 5100 5940
2020-07-07 21:45 11.20 3400 6810 (2007) 77 (1988) 1630 103 148 377 652 954 1940 2430 5100 5940
2020-07-07 20:45 10.01 2460 6810 (2007) 77 (1988) 1630 103 148 377 652 954 1940 2430 5100 5940
2020-07-07 19:45 8.50 1430 6810 (2007) 77 (1988) 1630 103 148 377 652 954 1940 2430 5100 5940
2020-07-07 18:45 7.25 728 6810 (2007) 77 (1988) 1630 103 148 377 652 954 1940 2430 5100 5940
2020-07-07 17:45 7.14 677 6810 (2007) 77 (1988) 1630 103 148 377 652 954 1940 2430 5100 5940
2020-07-07 16:45 7.28 742 6810 (2007) 77 (1988) 1630 103 148 377 652 954 1940 2430 5100 5940
2020-07-07 15:45 7.47 835 6810 (2007) 77 (1988) 1630 103 148 377 652 954 1940 2430 5100 5940
2020-07-07 14:45 7.69 949 6810 (2007) 77 (1988) 1630 103 148 377 652 954 1940 2430 5100 5940
2020-07-07 13:45 7.97 1110 6810 (2007) 77 (1988) 1630 103 148 377 652 954 1940 2430 5100 5940
2020-07-07 12:45 8.30 1310 6810 (2007) 77 (1988) 1630 103 148 377 652 954 1940 2430 5100 5940
2020-07-07 11:45 8.70 1560 6810 (2007) 77 (1988) 1630 103 148 377 652 954 1940 2430 5100 5940
2020-07-07 10:45 9.18 1870 6810 (2007) 77 (1988) 1630 103 148 377 652 954 1940 2430 5100 5940
2020-07-07 09:45 9.73 2250 6810 (2007) 77 (1988) 1630 103 148 377 652 954 1940 2430 5100 5940
2020-07-07 08:45 10.33 2700 6810 (2007) 77 (1988) 1630 103 148 377 652 954 1940 2430 5100 5940
2020-07-07 07:45 10.95 3190 6810 (2007) 77 (1988) 1630 103 148 377 652 954 1940 2430 5100 5940
2020-07-07 06:45 11.61 3750 6810 (2007) 77 (1988) 1630 103 148 377 652 954 1940 2430 5100 5940
2020-07-07 05:45 12.25 4330 6810 (2007) 77 (1988) 1630 103 148 377 652 954 1940 2430 5100 5940
2020-07-07 04:45 12.85 4900 6810 (2007) 77 (1988) 1630 103 148 377 652 954 1940 2430 5100 5940
2020-07-07 03:45 13.34 5390 6810 (2007) 77 (1988) 1630 103 148 377 652 954 1940 2430 5100 5940
2020-07-07 02:45 13.68 5730 6810 (2007) 77 (1988) 1630 103 148 377 652 954 1940 2430 5100 5940
2020-07-07 01:45 13.84 5900 6810 (2007) 77 (1988) 1630 103 148 377 652 954 1940 2430 5100 5940
2020-07-07 00:45 13.72 5770 6810 (2007) 77 (1988) 1630 103 148 377 652 954 1940 2430 5100 5940
2020-07-06 23:45 13.39 5440 6920 (2007) 72 (1991) 1620 93 116 143 274 963 2100 2690 4110 5370
2020-07-06 22:45 12.89 4940 6920 (2007) 72 (1991) 1620 93 116 143 274 963 2100 2690 4110 5370
2020-07-06 21:45 12.22 4300 6920 (2007) 72 (1991) 1620 93 116 143 274 963 2100 2690 4110 5370
2020-07-06 20:45 11.35 3530 6920 (2007) 72 (1991) 1620 93 116 143 274 963 2100 2690 4110 5370
2020-07-06 19:45 10.21 2610 6920 (2007) 72 (1991) 1620 93 116 143 274 963 2100 2690 4110 5370
2020-07-06 18:45 8.69 1550 6920 (2007) 72 (1991) 1620 93 116 143 274 963 2100 2690 4110 5370
2020-07-06 17:45 7.19 700 6920 (2007) 72 (1991) 1620 93 116 143 274 963 2100 2690 4110 5370
2020-07-06 16:45 7.00 614 6920 (2007) 72 (1991) 1620 93 116 143 274 963 2100 2690 4110 5370
2020-07-06 15:45 7.08 650 6920 (2007) 72 (1991) 1620 93 116 143 274 963 2100 2690 4110 5370
2020-07-06 14:45 7.17 691 6920 (2007) 72 (1991) 1620 93 116 143 274 963 2100 2690 4110 5370
2020-07-06 13:45 7.27 738 6920 (2007) 72 (1991) 1620 93 116 143 274 963 2100 2690 4110 5370
2020-07-06 12:45 7.40 800 6920 (2007) 72 (1991) 1620 93 116 143 274 963 2100 2690 4110 5370
2020-07-06 11:45 7.56 881 6920 (2007) 72 (1991) 1620 93 116 143 274 963 2100 2690 4110 5370
2020-07-06 10:45 7.77 994 6920 (2007) 72 (1991) 1620 93 116 143 274 963 2100 2690 4110 5370
2020-07-06 09:45 8.02 1140 6920 (2007) 72 (1991) 1620 93 116 143 274 963 2100 2690 4110 5370
2020-07-06 08:45 8.30 1310 6920 (2007) 72 (1991) 1620 93 116 143 274 963 2100 2690 4110 5370
2020-07-06 07:45 8.59 1490 6920 (2007) 72 (1991) 1620 93 116 143 274 963 2100 2690 4110 5370
2020-07-06 06:45 8.91 1690 6920 (2007) 72 (1991) 1620 93 116 143 274 963 2100 2690 4110 5370
2020-07-06 05:45 9.23 1900 6920 (2007) 72 (1991) 1620 93 116 143 274 963 2100 2690 4110 5370
2020-07-06 04:45 9.56 2130 6920 (2007) 72 (1991) 1620 93 116 143 274 963 2100 2690 4110 5370
2020-07-06 03:45 9.84 2330 6920 (2007) 72 (1991) 1620 93 116 143 274 963 2100 2690 4110 5370
2020-07-06 02:45 10.04 2480 6920 (2007) 72 (1991) 1620 93 116 143 274 963 2100 2690 4110 5370
2020-07-06 01:45 10.09 2520 6920 (2007) 72 (1991) 1620 93 116 143 274 963 2100 2690 4110 5370
2020-07-06 00:45 9.88 2360 6920 (2007) 72 (1991) 1620 93 116 143 274 963 2100 2690 4110 5370

A total of 185 rows are displayed for years 1975 through 2019.